Time;durP1;ratioP1;P1;durP2;ratioP2;P2;SDS_P1;SDS_P2;PMS_P1;PMS_P2;Temp;Humidity;BMP_temperature;BMP_pressure;BME280_temperature;BME280_humidity;BME280_pressure;Samples;Min_cycle;Max_cycle;Signal;HPM_P1;HPM_P2
2021/06/03 00:01:50;;;;;;;7.43;3.20;;;21.30;55.40;;;;;;4978618;28;20046;-80
2021/06/03 00:04:16;;;;;;;5.15;2.83;;;21.30;56.10;;;;;;4980732;28;20017;-80
2021/06/03 00:06:42;;;;;;;7.53;2.78;;;21.20;56.50;;;;;;4979135;28;20034;-78
2021/06/03 00:09:08;;;;;;;4.65;2.13;;;21.10;56.30;;;;;;4977680;28;20022;-79
2021/06/03 00:11:34;;;;;;;3.85;2.22;;;21.10;56.80;;;;;;4967734;28;20121;-80
2021/06/03 00:14:00;;;;;;;4.57;2.45;;;21.00;57.10;;;;;;4966709;28;20471;-79
2021/06/03 00:16:26;;;;;;;6.53;2.92;;;21.00;57.00;;;;;;4965653;28;20146;-79
2021/06/03 00:18:52;;;;;;;7.47;2.97;;;21.00;57.70;;;;;;4985483;28;20041;-79
2021/06/03 00:21:17;;;;;;;5.25;2.80;;;21.00;57.20;;;;;;4984332;28;20022;-80
2021/06/03 00:23:43;;;;;;;5.28;2.47;;;20.90;57.50;;;;;;4984265;28;20105;-80
2021/06/03 00:26:08;;;;;;;4.68;2.60;;;20.90;57.60;;;;;;4965512;28;20022;-79
2021/06/03 00:28:34;;;;;;;3.90;2.22;;;20.80;57.60;;;;;;4966932;28;20137;-80
2021/06/03 00:31:00;;;;;;;7.10;2.42;;;20.80;57.60;;;;;;4966373;28;20039;-80
2021/06/03 00:33:26;;;;;;;6.75;3.05;;;20.80;57.80;;;;;;4973330;28;20031;-79
2021/06/03 00:35:52;;;;;;;7.45;3.05;;;20.80;58.10;;;;;;4962270;28;20077;-79
2021/06/03 00:38:18;;;;;;;8.35;2.97;;;20.70;58.20;;;;;;4973651;28;20038;-79
2021/06/03 00:40:43;;;;;;;6.55;2.33;;;20.70;58.50;;;;;;4966524;28;20031;-79
2021/06/03 00:43:09;;;;;;;6.25;3.50;;;20.60;58.90;;;;;;4973545;28;20023;-78
2021/06/03 00:45:38;;;;;;;6.18;3.10;;;20.60;59.70;;;;;;4974275;28;20027;-80
2021/06/03 00:48:08;;;;;;;5.07;2.85;;;20.50;59.20;;;;;;4974930;28;20025;-80
2021/06/03 00:50:35;;;;;;;;;;;20.50;59.30;;;;;;4970543;28;20357;-78
2021/06/03 00:53:03;;;;;;;7.00;3.55;;;20.40;59.30;;;;;;4966151;28;19914;-79
2021/06/03 00:55:29;;;;;;;5.53;3.70;;;20.40;59.40;;;;;;4975291;28;20372;-80
2021/06/03 00:57:55;;;;;;;8.50;3.58;;;20.40;59.80;;;;;;4965240;28;20026;-80
2021/06/03 01:00:21;;;;;;;9.60;3.90;;;20.30;59.70;;;;;;4974263;28;20146;-79
2021/06/03 01:02:47;;;;;;;6.65;3.72;;;20.40;60.00;;;;;;4971665;28;20030;-78
2021/06/03 01:05:18;;;;;;;8.35;4.43;;;20.30;60.30;;;;;;4968974;28;20049;-79
2021/06/03 01:07:44;;;;;;;6.97;3.90;;;20.30;60.90;;;;;;4977163;28;20049;-80
2021/06/03 01:10:20;;;;;;;5.72;2.92;;;20.30;60.80;;;;;;4968123;28;20463;-79
2021/06/03 01:12:50;;;;;;;6.25;3.33;;;20.30;60.90;;;;;;4988708;28;20062;-80
2021/06/03 01:15:17;;;;;;;;;;;20.20;61.20;;;;;;4974790;28;20074;-81
2021/06/03 01:17:43;;;;;;;9.85;3.10;;;20.20;61.30;;;;;;4982659;28;19960;-80
2021/06/03 01:20:09;;;;;;;6.68;3.65;;;20.20;61.60;;;;;;4966903;28;20030;-79
2021/06/03 01:23:09;;;;;;;5.63;3.50;;;20.20;61.60;;;;;;4982393;28;20019;-79
2021/06/03 01:25:35;;;;;;;5.53;3.50;;;20.10;62.10;;;;;;4973050;28;20038;-80
2021/06/03 01:28:03;;;;;;;4.28;2.90;;;20.10;62.00;;;;;;4956951;28;20034;-79
2021/06/03 01:30:35;;;;;;;6.80;3.15;;;20.10;62.20;;;;;;4957565;28;20110;-78
2021/06/03 01:33:05;;;;;;;5.70;3.20;;;20.10;62.50;;;;;;4957803;28;20399;-79
2021/06/03 01:35:34;;;;;;;6.63;3.15;;;20.10;62.80;;;;;;4962294;28;20031;-79
2021/06/03 01:38:04;;;;;;;6.70;3.13;;;20.10;63.20;;;;;;4977734;28;20080;-79
2021/06/03 01:40:33;;;;;;;4.75;2.83;;;20.00;62.90;;;;;;4957815;28;20026;-79
2021/06/03 01:42:59;;;;;;;5.50;2.97;;;20.00;63.10;;;;;;4956403;28;20023;-79
2021/06/03 01:45:26;;;;;;;4.97;2.85;;;20.00;63.30;;;;;;4956725;28;20034;-79
2021/06/03 01:47:53;;;;;;;4.88;2.85;;;20.00;63.30;;;;;;4956750;28;20090;-79
2021/06/03 01:50:22;;;;;;;5.15;2.88;;;20.00;63.30;;;;;;4957187;28;20031;-80
2021/06/03 01:52:48;;;;;;;8.90;3.55;;;20.00;63.50;;;;;;4974437;28;20035;-78
2021/06/03 01:55:16;;;;;;;6.03;3.53;;;20.00;63.80;;;;;;4962069;28;20019;-78
2021/06/03 01:57:45;;;;;;;5.82;2.38;;;20.00;64.20;;;;;;4974896;28;20031;-79
2021/06/03 02:00:13;;;;;;;5.45;2.75;;;19.90;63.80;;;;;;4974273;28;20034;-78
2021/06/03 02:02:39;;;;;;;5.70;3.03;;;19.90;63.80;;;;;;4974362;28;20027;-79
2021/06/03 02:05:05;;;;;;;5.28;2.90;;;19.90;64.10;;;;;;4956786;28;20110;-79
2021/06/03 02:07:32;;;;;;;5.93;2.97;;;19.90;64.20;;;;;;4957136;28;20057;-80
2021/06/03 02:09:58;;;;;;;5.15;2.72;;;19.80;64.60;;;;;;4969815;28;20007;-78
2021/06/03 02:12:25;;;;;;;4.65;2.90;;;19.90;64.60;;;;;;4969320;28;20374;-78
2021/06/03 02:14:54;;;;;;;7.10;2.60;;;19.80;64.70;;;;;;4956714;28;20140;-79
2021/06/03 02:17:24;;;;;;;4.85;2.80;;;19.80;64.90;;;;;;4956639;28;20027;-79
2021/06/03 02:20:09;;;;;;;6.43;3.00;;;19.80;65.30;;;;;;4974039;28;20075;-79
2021/06/03 02:22:37;;;;;;;7.28;2.92;;;19.70;66.10;;;;;;4956675;28;20023;-79
2021/06/03 02:25:05;;;;;;;7.60;3.17;;;19.70;65.90;;;;;;4956442;28;20482;-79
2021/06/03 02:27:31;;;;;;;6.03;3.08;;;19.70;66.20;;;;;;4956496;28;20122;-79
2021/06/03 02:29:57;;;;;;;5.65;2.90;;;19.70;66.70;;;;;;4977139;28;20034;-80
2021/06/03 02:32:23;;;;;;;5.28;2.80;;;19.60;65.90;;;;;;4960336;28;20038;-79
2021/06/03 02:34:52;;;;;;;6.05;2.80;;;19.60;65.90;;;;;;4956040;28;20054;-78
2021/06/03 02:37:18;;;;;;;3.90;2.30;;;19.70;66.00;;;;;;4956136;28;20047;-79
2021/06/03 02:39:48;;;;;;;5.45;2.60;;;19.70;66.00;;;;;;4973846;28;20042;-79
2021/06/03 02:42:16;;;;;;;4.18;2.42;;;19.70;66.30;;;;;;4956574;28;20440;-79
2021/06/03 02:44:42;;;;;;;6.25;3.00;;;19.70;66.40;;;;;;4956414;28;20096;-79
2021/06/03 02:47:09;;;;;;;5.25;3.00;;;19.60;66.90;;;;;;4956520;28;20468;-79
2021/06/03 02:49:35;;;;;;;5.90;3.35;;;19.60;67.20;;;;;;4973920;28;20030;-79
2021/06/03 02:52:05;;;;;;;6.88;3.40;;;19.60;67.00;;;;;;4956936;28;20097;-79
2021/06/03 02:54:31;;;;;;;5.38;3.13;;;19.60;67.20;;;;;;4977401;28;20475;-80
2021/06/03 02:56:57;;;;;;;4.40;3.22;;;19.60;67.40;;;;;;4959324;28;20030;-79
2021/06/03 02:59:23;;;;;;;7.35;3.22;;;19.70;67.30;;;;;;4957084;28;20038;-80
2021/06/03 03:01:48;;;;;;;6.15;3.38;;;19.60;67.50;;;;;;4960502;28;20023;-79
2021/06/03 03:04:14;;;;;;;5.55;3.38;;;19.60;67.50;;;;;;4960259;28;20022;-79
2021/06/03 03:06:40;;;;;;;8.55;3.92;;;19.60;67.70;;;;;;4962292;28;20034;-79
2021/06/03 03:09:06;;;;;;;5.45;3.30;;;19.60;67.90;;;;;;4979117;28;20026;-80
2021/06/03 03:11:32;;;;;;;7.88;3.10;;;19.60;68.00;;;;;;4978300;28;20037;-80
2021/06/03 03:13:58;;;;;;;7.55;3.72;;;19.50;68.10;;;;;;4960396;28;20023;-79
2021/06/03 03:16:24;;;;;;;6.85;3.50;;;19.50;68.50;;;;;;4961171;28;20023;-79
2021/06/03 03:18:50;;;;;;;7.22;4.03;;;19.50;68.60;;;;;;4978510;28;20023;-78
2021/06/03 03:21:16;;;;;;;7.05;3.85;;;19.50;68.60;;;;;;4960231;28;20463;-79
2021/06/03 03:23:42;;;;;;;6.05;3.67;;;19.50;68.60;;;;;;4961232;28;20046;-79
2021/06/03 03:26:07;;;;;;;7.35;3.28;;;19.50;69.70;;;;;;4959931;28;20585;-78
2021/06/03 03:28:33;;;;;;;6.50;3.40;;;19.50;68.80;;;;;;4959305;28;20019;-78
2021/06/03 03:31:00;;;;;;;5.22;2.95;;;19.50;69.00;;;;;;4959225;28;20026;-78
2021/06/03 03:33:25;;;;;;;6.65;3.47;;;19.50;69.30;;;;;;4959516;28;20033;-79
2021/06/03 03:35:52;;;;;;;6.63;3.20;;;19.50;69.60;;;;;;4959351;28;20110;-80
2021/06/03 03:38:20;;;;;;;5.90;3.28;;;19.40;69.70;;;;;;4959169;28;20065;-80
2021/06/03 03:40:47;;;;;;;6.35;3.65;;;19.40;70.60;;;;;;4959387;28;20031;-79
2021/06/03 03:43:12;;;;;;;7.25;3.53;;;19.40;70.50;;;;;;4959993;28;20026;-80
2021/06/03 03:45:38;;;;;;;6.97;3.63;;;19.40;70.60;;;;;;4959297;28;20649;-79
2021/06/03 03:48:04;;;;;;;6.90;3.30;;;19.30;70.50;;;;;;4959156;28;20023;-79
2021/06/03 03:50:32;;;;;;;7.15;3.63;;;19.30;70.70;;;;;;4958865;28;20049;-79
2021/06/03 03:52:58;;;;;;;5.55;3.42;;;19.30;70.90;;;;;;4958784;28;20493;-79
2021/06/03 03:55:24;;;;;;;7.60;3.78;;;19.30;71.20;;;;;;4959065;28;20027;-80
2021/06/03 03:57:49;;;;;;;5.25;3.67;;;19.30;71.20;;;;;;4959199;28;20031;-79
2021/06/03 04:00:22;;;;;;;5.28;3.10;;;19.30;71.30;;;;;;4959137;28;20030;-79
2021/06/03 04:02:48;;;;;;;5.13;3.17;;;19.20;71.20;;;;;;4960300;28;20432;-79
2021/06/03 04:05:14;;;;;;;6.05;3.75;;;19.20;72.20;;;;;;4968450;28;20482;-79
2021/06/03 04:07:40;;;;;;;5.63;3.40;;;19.20;71.60;;;;;;4958919;28;20042;-79
2021/06/03 04:10:08;;;;;;;6.95;3.42;;;19.10;71.60;;;;;;4958936;28;20121;-80
2021/06/03 04:12:34;;;;;;;6.85;4.20;;;19.10;71.90;;;;;;4959789;28;20023;-79
2021/06/03 04:15:00;;;;;;;6.85;3.97;;;19.10;71.90;;;;;;4963524;28;20147;-79
2021/06/03 04:17:26;;;;;;;6.03;3.90;;;19.10;72.20;;;;;;4967183;28;20480;-78
2021/06/03 04:19:52;;;;;;;6.32;3.85;;;19.10;72.50;;;;;;4963179;28;20452;-78
2021/06/03 04:22:21;;;;;;;8.82;4.40;;;19.00;72.10;;;;;;4964175;28;20030;-78
2021/06/03 04:24:46;;;;;;;7.55;3.83;;;19.10;72.40;;;;;;4960379;28;20031;-80
2021/06/03 04:27:12;;;;;;;6.38;4.30;;;19.10;72.50;;;;;;4958145;28;20066;-80
2021/06/03 04:29:38;;;;;;;7.70;4.30;;;19.20;72.70;;;;;;4958286;28;20125;-80
2021/06/03 04:32:04;;;;;;;7.05;4.55;;;19.10;72.70;;;;;;4958074;28;20136;-79
2021/06/03 04:34:29;;;;;;;6.43;4.00;;;19.20;73.30;;;;;;4958382;28;20113;-79
2021/06/03 04:36:55;;;;;;;7.75;4.40;;;19.30;72.90;;;;;;4957586;28;20215;-78
2021/06/03 04:39:20;;;;;;;7.07;4.97;;;19.30;72.90;;;;;;4958129;28;20023;-79
2021/06/03 04:41:46;;;;;;;6.18;4.20;;;19.40;72.80;;;;;;4958417;28;20038;-79
2021/06/03 04:44:12;;;;;;;7.25;4.35;;;19.40;72.60;;;;;;4959259;28;20045;-78
2021/06/03 04:46:37;;;;;;;9.35;4.50;;;19.40;72.40;;;;;;4965439;28;20037;-79
2021/06/03 04:49:03;;;;;;;7.20;4.90;;;19.50;72.40;;;;;;4960112;28;20473;-79
2021/06/03 04:51:29;;;;;;;7.60;4.30;;;19.60;72.40;;;;;;4958197;28;20035;-79
2021/06/03 04:53:54;;;;;;;7.13;4.70;;;19.70;72.20;;;;;;4959135;28;20500;-79
2021/06/03 04:56:20;;;;;;;10.32;5.15;;;19.70;72.20;;;;;;4962568;28;20034;-79
2021/06/03 04:58:46;;;;;;;7.00;4.82;;;19.80;72.20;;;;;;4975533;28;20110;-79
2021/06/03 05:01:12;;;;;;;6.53;4.72;;;19.80;72.30;;;;;;4957327;28;20019;-80
2021/06/03 05:03:37;;;;;;;8.48;5.13;;;19.90;72.00;;;;;;4984377;28;20054;-81
2021/06/03 05:06:06;;;;;;;7.45;5.53;;;20.00;71.50;;;;;;4972074;28;20026;-80
2021/06/03 05:08:32;;;;;;;8.83;4.93;;;20.00;71.30;;;;;;4981873;28;20057;-81
2021/06/03 05:10:58;;;;;;;7.38;5.25;;;20.00;71.50;;;;;;4966687;28;20374;-79
2021/06/03 05:13:23;;;;;;;5.90;4.57;;;20.10;71.20;;;;;;4972304;28;20121;-80
2021/06/03 05:15:49;;;;;;;7.88;5.10;;;20.10;71.30;;;;;;4984020;28;20030;-79
2021/06/03 05:18:14;;;;;;;7.72;5.00;;;20.10;71.20;;;;;;4964638;28;20022;-80
2021/06/03 05:20:40;;;;;;;8.50;5.65;;;20.10;71.20;;;;;;4967387;28;20086;-80
2021/06/03 05:23:06;;;;;;;9.70;5.63;;;20.10;71.30;;;;;;4965004;28;20019;-80
2021/06/03 05:25:33;;;;;;;9.50;5.82;;;20.10;71.40;;;;;;4984107;28;20029;-80
2021/06/03 05:28:02;;;;;;;9.05;5.38;;;20.10;71.60;;;;;;4976613;28;20375;-79
2021/06/03 05:30:28;;;;;;;7.63;5.47;;;20.10;71.70;;;;;;4974377;28;20022;-80
2021/06/03 05:32:54;;;;;;;10.68;5.68;;;20.10;71.70;;;;;;4979262;28;20026;-80
2021/06/03 05:35:22;;;;;;;7.65;5.40;;;20.10;72.20;;;;;;4968801;28;20022;-80
2021/06/03 05:37:48;;;;;;;7.90;5.88;;;20.10;72.00;;;;;;4965344;28;20053;-79
2021/06/03 05:40:17;;;;;;;8.00;6.03;;;20.10;72.40;;;;;;4974918;28;20018;-81
2021/06/03 05:42:43;;;;;;;9.05;5.97;;;20.10;72.60;;;;;;4973678;28;20041;-80
2021/06/03 05:45:13;;;;;;;8.15;6.15;;;20.10;72.60;;;;;;4982951;28;20704;-81
2021/06/03 05:47:39;;;;;;;7.72;5.50;;;20.10;72.20;;;;;;4964268;28;20082;-80
2021/06/03 05:50:07;;;;;;;10.38;6.88;;;20.10;72.40;;;;;;4963340;28;20504;-81
2021/06/03 05:52:33;;;;;;;9.98;6.30;;;20.10;73.20;;;;;;4963966;28;20023;-81
2021/06/03 05:54:59;;;;;;;10.27;6.47;;;20.10;73.20;;;;;;4966332;28;20022;-82
2021/06/03 05:57:25;;;;;;;9.98;6.88;;;20.10;73.80;;;;;;4966011;28;20636;-81
2021/06/03 05:59:51;;;;;;;8.02;5.72;;;20.10;74.00;;;;;;4984382;28;20117;-80
2021/06/03 06:02:27;;;;;;;9.93;6.25;;;20.20;73.80;;;;;;4963521;28;20022;-81
2021/06/03 06:07:38;;;;;;;8.82;5.10;;;20.30;73.20;;;;;;4986946;28;20391;-80
2021/06/03 06:10:04;;;;;;;10.00;6.72;;;20.40;71.00;;;;;;4966347;28;20050;-80
2021/06/03 06:12:33;;;;;;;8.45;6.10;;;20.40;72.30;;;;;;4995342;28;20031;-79
2021/06/03 06:14:58;;;;;;;13.57;7.57;;;20.50;72.90;;;;;;4978448;28;20015;-81
2021/06/03 06:17:24;;;;;;;9.25;6.47;;;20.50;73.50;;;;;;4974085;28;20078;-80
2021/06/03 06:19:50;;;;;;;8.77;5.60;;;20.60;73.30;;;;;;4976949;28;20035;-80
2021/06/03 06:22:16;;;;;;;8.93;6.90;;;20.70;72.10;;;;;;4981569;28;21589;-80
2021/06/03 06:24:45;;;;;;;9.30;6.28;;;20.80;72.00;;;;;;4973387;28;20042;-81
2021/06/03 06:27:11;;;;;;;11.60;6.17;;;21.00;70.40;;;;;;4971710;28;20058;-79
2021/06/03 06:29:37;;;;;;;9.82;6.20;;;21.30;69.40;;;;;;4971786;28;20061;-81
2021/06/03 06:32:03;;;;;;;11.10;7.25;;;21.40;69.00;;;;;;4973838;28;20463;-81
2021/06/03 06:34:28;;;;;;;9.48;7.25;;;21.50;70.40;;;;;;4970114;28;20685;-80
2021/06/03 06:36:54;;;;;;;10.77;8.05;;;21.60;70.40;;;;;;4963407;28;20051;-81
2021/06/03 06:39:19;;;;;;;9.43;5.95;;;21.70;70.70;;;;;;4964321;28;20038;-80
2021/06/03 06:41:46;;;;;;;9.40;7.35;;;21.80;69.40;;;;;;4961850;28;20058;-80
2021/06/03 06:44:12;;;;;;;8.52;6.03;;;21.90;69.90;;;;;;4961628;28;20027;-80
2021/06/03 06:46:38;;;;;;;11.73;6.38;;;22.00;69.50;;;;;;4978255;28;20032;-81
2021/06/03 06:49:04;;;;;;;12.88;7.43;;;22.20;66.40;;;;;;4997392;28;20030;-79
2021/06/03 06:51:30;;;;;;;13.10;8.80;;;22.40;68.60;;;;;;4980177;28;20033;-80
2021/06/03 06:53:56;;;;;;;9.35;6.90;;;22.40;68.70;;;;;;4980449;28;20390;-80
2021/06/03 06:56:24;;;;;;;12.85;8.95;;;22.60;68.40;;;;;;4998936;28;20033;-82
2021/06/03 06:58:50;;;;;;;8.57;7.05;;;22.70;68.50;;;;;;5001148;28;20030;-85
2021/06/03 07:01:23;;;;;;;7.63;6.00;;;22.80;67.70;;;;;;4981529;28;20385;-87
2021/06/03 07:03:49;;;;;;;7.80;4.95;;;22.90;67.90;;;;;;4982943;28;20022;-87
2021/06/03 07:06:14;;;;;;;11.57;8.45;;;23.00;67.40;;;;;;4981720;28;20026;-80
2021/06/03 07:08:40;;;;;;;11.32;9.73;;;23.20;65.60;;;;;;4979967;28;20033;-79
2021/06/03 07:11:06;;;;;;;11.98;10.63;;;23.40;65.60;;;;;;4979480;28;20088;-78
2021/06/03 07:13:31;;;;;;;11.10;7.70;;;23.40;65.80;;;;;;4979416;28;20042;-78
2021/06/03 07:15:57;;;;;;;11.52;9.50;;;23.30;64.00;;;;;;4979658;28;20026;-79
2021/06/03 07:18:24;;;;;;;10.40;7.63;;;23.40;66.00;;;;;;4980308;28;20026;-81
2021/06/03 07:20:50;;;;;;;13.50;8.93;;;23.40;66.00;;;;;;4980171;28;20489;-79
2021/06/03 07:23:16;;;;;;;12.10;8.27;;;23.30;64.60;;;;;;4997959;28;20018;-81
2021/06/03 07:25:42;;;;;;;12.00;9.18;;;23.30;65.50;;;;;;4979971;28;20483;-79
2021/06/03 07:28:09;;;;;;;13.85;9.90;;;23.40;65.30;;;;;;4979598;28;20113;-81
2021/06/03 07:30:35;;;;;;;12.93;9.73;;;23.50;65.50;;;;;;4979328;28;20031;-79
2021/06/03 07:33:01;;;;;;;10.77;8.63;;;23.60;65.30;;;;;;4979324;28;20038;-78
2021/06/03 07:35:28;;;;;;;12.23;9.82;;;23.80;64.10;;;;;;4979463;28;20023;-79
2021/06/03 07:37:55;;;;;;;14.27;11.02;;;24.00;63.80;;;;;;4980143;28;20394;-82
2021/06/03 07:40:24;;;;;;;11.60;8.48;;;24.20;64.00;;;;;;4978856;28;20040;-80
2021/06/03 07:42:51;;;;;;;11.95;6.53;;;24.40;62.70;;;;;;4980028;28;20022;-80
2021/06/03 07:45:22;;;;;;;11.82;9.05;;;24.60;61.10;;;;;;4978395;28;20038;-80
2021/06/03 07:47:48;;;;;;;11.40;9.15;;;24.70;60.50;;;;;;4979006;28;20061;-81
2021/06/03 07:50:14;;;;;;;12.60;10.40;;;24.80;60.70;;;;;;4979081;28;20022;-80
2021/06/03 07:52:41;;;;;;;11.55;7.65;;;24.60;60.50;;;;;;4978934;28;20034;-80
2021/06/03 07:55:10;;;;;;;6.88;4.65;;;24.50;60.80;;;;;;4979311;28;20030;-79
2021/06/03 07:57:36;;;;;;;14.60;9.90;;;24.60;59.40;;;;;;4978801;28;20491;-79
2021/06/03 08:00:08;;;;;;;11.45;7.00;;;24.70;61.10;;;;;;4978755;28;20459;-78
2021/06/03 08:02:34;;;;;;;12.45;9.35;;;24.90;59.80;;;;;;4978881;28;20511;-79
2021/06/03 08:04:59;;;;;;;14.05;8.27;;;25.00;60.10;;;;;;4978229;28;20109;-81
2021/06/03 08:07:25;;;;;;;10.82;8.20;;;25.00;59.70;;;;;;4978196;28;20023;-77
2021/06/03 08:09:51;;;;;;;16.88;7.40;;;25.10;59.30;;;;;;4978831;28;20037;-82
2021/06/03 08:12:16;;;;;;;10.73;6.82;;;25.30;60.00;;;;;;4978773;28;20364;-81
2021/06/03 08:14:42;;;;;;;12.48;9.13;;;25.40;58.90;;;;;;4978763;28;20077;-81
2021/06/03 08:17:08;;;;;;;11.45;8.35;;;25.40;58.80;;;;;;4962639;28;20525;-81
2021/06/03 08:19:33;;;;;;;12.20;9.35;;;25.40;59.00;;;;;;4978714;28;20084;-82
2021/06/03 08:21:59;;;;;;;13.43;9.18;;;25.40;59.10;;;;;;4979603;28;20467;-82
2021/06/03 08:24:25;;;;;;;12.48;9.70;;;25.50;59.60;;;;;;4991759;28;20027;-81
2021/06/03 08:26:52;;;;;;;11.88;9.43;;;25.50;58.80;;;;;;4989581;28;20022;-80
2021/06/03 08:29:19;;;;;;;11.75;8.13;;;25.40;58.80;;;;;;4988630;28;20030;-82
2021/06/03 08:31:45;;;;;;;12.20;7.97;;;25.30;59.70;;;;;;4987772;28;20459;-82
2021/06/03 08:34:11;;;;;;;15.30;9.63;;;25.20;60.10;;;;;;4977675;28;20059;-77
2021/06/03 08:36:38;;;;;;;12.45;9.32;;;25.20;60.50;;;;;;4978220;28;20026;-84
2021/06/03 08:39:08;;;;;;;11.35;7.60;;;25.20;60.20;;;;;;4978764;28;20030;-83
2021/06/03 08:41:39;;;;;;;11.30;8.25;;;25.30;60.00;;;;;;4980075;28;20426;-83
2021/06/03 08:44:06;;;;;;;9.13;6.63;;;25.60;60.00;;;;;;4978478;28;20027;-83
2021/06/03 08:46:33;;;;;;;9.50;6.90;;;25.80;59.30;;;;;;4978006;28;20019;-82
2021/06/03 08:49:02;;;;;;;10.30;6.40;;;26.00;58.50;;;;;;4978039;28;20093;-79
2021/06/03 08:51:27;;;;;;;10.88;7.80;;;26.10;58.60;;;;;;4977433;28;20429;-83
2021/06/03 08:53:53;;;;;;;7.05;4.82;;;26.20;58.40;;;;;;4978459;28;20105;-79
2021/06/03 08:56:19;;;;;;;7.78;3.78;;;26.20;57.90;;;;;;4977236;28;20026;-78
2021/06/03 08:58:52;;;;;;;8.43;4.15;;;26.30;57.30;;;;;;4976558;28;20029;-81
2021/06/03 09:01:18;;;;;;;10.93;6.47;;;26.40;57.10;;;;;;4977113;28;20026;-83
2021/06/03 09:03:47;;;;;;;9.30;5.78;;;26.50;56.80;;;;;;4977450;28;20025;-82
2021/06/03 09:06:15;;;;;;;8.35;5.75;;;26.40;57.00;;;;;;4978458;28;20019;-81
2021/06/03 09:08:47;;;;;;;10.68;7.30;;;26.20;57.20;;;;;;4995266;28;20041;-82
2021/06/03 09:11:16;;;;;;;10.57;7.22;;;26.10;57.40;;;;;;4976917;28;20026;-82
2021/06/03 09:13:45;;;;;;;10.10;5.60;;;26.40;57.90;;;;;;4977083;28;20494;-82
2021/06/03 09:16:10;;;;;;;6.38;4.63;;;26.80;57.20;;;;;;4989995;28;20052;-84
2021/06/03 09:18:58;;;;;;;9.32;5.93;;;27.10;56.50;;;;;;4968350;28;20454;-84
2021/06/03 09:21:23;;;;;;;10.38;6.70;;;27.20;56.20;;;;;;4958666;28;20030;-80
2021/06/03 09:23:58;;;;;;;10.68;6.63;;;27.40;55.80;;;;;;4958259;28;20023;-79
2021/06/03 09:26:25;;;;;;;7.82;4.90;;;27.70;55.20;;;;;;4957723;28;20027;-79
2021/06/03 09:28:52;;;;;;;8.63;5.30;;;28.10;54.70;;;;;;4957731;28;20048;-80
2021/06/03 09:31:29;;;;;;;8.75;5.65;;;28.40;54.20;;;;;;4974572;28;20404;-80
2021/06/03 09:34:16;;;;;;;7.55;4.75;;;28.50;53.10;;;;;;4974988;28;20033;-79
2021/06/03 09:36:49;;;;;;;11.23;7.78;;;28.70;52.60;;;;;;4958053;28;20023;-80
2021/06/03 09:39:45;;;;;;;6.60;3.00;;;28.80;52.20;;;;;;4959725;28;20117;-79
2021/06/03 09:42:18;;;;;;;12.18;7.22;;;28.80;53.40;;;;;;4975557;28;20023;-79
2021/06/03 09:44:53;;;;;;;11.70;7.72;;;29.10;52.80;;;;;;4957456;28;20042;-79
2021/06/03 09:47:21;;;;;;;9.05;4.60;;;29.20;51.40;;;;;;4957657;28;20019;-80
2021/06/03 09:49:53;;;;;;;9.85;6.22;;;29.00;52.70;;;;;;4957636;28;20185;-79
2021/06/03 09:52:26;;;;;;;7.82;6.05;;;28.70;52.80;;;;;;4957715;28;20403;-79
2021/06/03 09:54:57;;;;;;;9.43;6.90;;;28.50;54.20;;;;;;4957693;28;20404;-79
2021/06/03 09:57:31;;;;;;;8.13;5.55;;;28.30;53.80;;;;;;4956824;28;20483;-78
2021/06/03 10:00:00;;;;;;;9.05;5.00;;;28.10;54.80;;;;;;4956607;28;20045;-80
2021/06/03 10:02:30;;;;;;;8.90;7.07;;;28.00;55.30;;;;;;4956590;28;20030;-78
2021/06/03 10:04:56;;;;;;;;;;;27.90;55.80;;;;;;4974974;28;20030;-78
2021/06/03 10:07:28;;;;;;;9.10;5.60;;;27.70;56.00;;;;;;4956627;28;19906;-76
2021/06/03 10:10:11;;;;;;;8.85;5.75;;;27.60;56.80;;;;;;4956699;28;20060;-76
2021/06/03 10:12:42;;;;;;;8.23;4.82;;;27.30;57.10;;;;;;4956459;28;20037;-76
2021/06/03 10:15:19;;;;;;;8.55;3.80;;;27.20;57.60;;;;;;4956510;28;20050;-77
2021/06/03 10:17:52;;;;;;;9.35;6.75;;;27.00;58.00;;;;;;4957563;28;20579;-78
2021/06/03 10:20:29;;;;;;;8.55;5.78;;;27.00;58.10;;;;;;4977551;28;20086;-78
2021/06/03 10:22:55;;;;;;;9.55;6.97;;;27.10;57.90;;;;;;4959456;28;20035;-77
2021/06/03 10:25:26;;;;;;;8.68;6.70;;;27.20;57.90;;;;;;4957208;28;20034;-77
2021/06/03 10:27:56;;;;;;;9.55;6.55;;;27.30;57.30;;;;;;4962202;28;20050;-77
2021/06/03 10:30:25;;;;;;;9.75;6.78;;;27.50;57.60;;;;;;4974115;28;20058;-77
2021/06/03 10:32:53;;;;;;;9.35;5.57;;;27.80;55.60;;;;;;4958162;28;20054;-78
2021/06/03 10:35:24;;;;;;;10.65;5.90;;;27.90;56.30;;;;;;4956771;28;20407;-78
2021/06/03 10:37:50;;;;;;;10.68;6.47;;;28.00;55.70;;;;;;4956247;28;20039;-77
2021/06/03 10:40:19;;;;;;;8.18;5.63;;;28.00;55.20;;;;;;4956287;28;20027;-77
2021/06/03 10:42:44;;;;;;;11.07;6.03;;;27.80;56.20;;;;;;4973879;28;20027;-78
2021/06/03 10:45:13;;;;;;;13.27;8.00;;;27.60;56.60;;;;;;4956213;28;20063;-78
2021/06/03 10:47:40;;;;;;;10.80;6.32;;;27.40;56.80;;;;;;4956232;28;20587;-77
2021/06/03 10:50:08;;;;;;;7.00;4.35;;;27.20;56.90;;;;;;4956010;28;20069;-77
2021/06/03 10:52:34;;;;;;;9.70;7.32;;;27.10;57.70;;;;;;4973650;28;20484;-78
2021/06/03 10:55:00;;;;;;;10.55;7.03;;;27.20;57.40;;;;;;4974097;28;20039;-76
2021/06/03 10:57:47;;;;;;;9.82;5.32;;;27.30;57.60;;;;;;4957614;28;20022;-80
2021/06/03 11:00:25;;;;;;;9.93;6.07;;;27.20;58.50;;;;;;4956457;28;20035;-77
2021/06/03 11:02:54;;;;;;;10.27;5.55;;;27.00;59.00;;;;;;4956665;28;20026;-76
2021/06/03 11:05:33;;;;;;;10.68;6.45;;;26.80;59.90;;;;;;4956478;28;20027;-87
2021/06/03 11:08:31;;;;;;;16.85;9.27;;;26.60;61.00;;;;;;4960407;28;20087;-79
2021/06/03 11:11:19;;;;;;;18.08;10.30;;;26.30;64.00;;;;;;4973542;28;20026;-81
2021/06/03 11:13:47;;;;;;;7.68;4.40;;;26.10;65.80;;;;;;4957564;28;20077;-76
2021/06/03 11:16:36;;;;;;;10.48;6.25;;;25.90;65.00;;;;;;4973445;28;20023;-84
2021/06/03 11:19:01;;;;;;;15.65;11.07;;;25.70;66.10;;;;;;4962825;28;20051;-83
2021/06/03 11:21:41;;;;;;;16.77;11.05;;;25.70;67.20;;;;;;4962261;28;20023;-83
2021/06/03 11:24:36;;;;;;;10.10;6.85;;;25.70;69.90;;;;;;4971362;28;20097;-85
2021/06/03 11:27:10;;;;;;;13.05;9.30;;;25.80;70.20;;;;;;4966419;28;20455;-84
2021/06/03 11:29:41;;;;;;;7.25;4.00;;;25.90;70.10;;;;;;4982547;28;20054;-91
2021/06/03 11:32:09;;;;;;;12.25;8.20;;;26.00;65.10;;;;;;4973886;28;20118;-88
2021/06/03 11:34:38;;;;;;;11.40;7.45;;;26.10;65.60;;;;;;4969030;28;20023;-93
2021/06/03 11:37:08;;;;;;;12.07;9.10;;;26.30;67.50;;;;;;4980549;28;20050;-90
2021/06/03 11:39:36;;;;;;;12.32;8.02;;;26.30;66.30;;;;;;4980099;28;20029;-87
2021/06/03 11:42:40;;;;;;;16.33;10.38;;;26.30;66.50;;;;;;4995419;28;20038;-89
2021/06/03 11:45:24;;;;;;;7.32;5.07;;;26.40;66.40;;;;;;4964678;28;20058;-88
2021/06/03 11:47:53;;;;;;;14.35;12.13;;;26.40;65.30;;;;;;4974675;28;20383;-86
2021/06/03 11:50:19;;;;;;;13.40;6.97;;;26.50;64.90;;;;;;4987564;28;20035;-87
2021/06/03 11:52:57;;;;;;;9.38;6.22;;;26.40;65.90;;;;;;4977402;28;20038;-88
2021/06/03 11:55:50;;;;;;;8.55;5.78;;;26.50;66.30;;;;;;4979934;28;20108;-82
2021/06/03 11:58:18;;;;;;;9.13;5.15;;;26.60;65.40;;;;;;4980206;28;20481;-82
2021/06/03 12:01:04;;;;;;;6.05;4.20;;;26.50;63.60;;;;;;4982087;28;20081;-86
2021/06/03 12:03:43;;;;;;;9.00;5.55;;;26.50;63.90;;;;;;4982071;28;20022;-84
2021/06/03 12:06:15;;;;;;;8.65;5.00;;;26.70;63.60;;;;;;4983137;28;20092;-83
2021/06/03 12:09:14;;;;;;;6.53;4.22;;;26.80;63.30;;;;;;4982420;28;20026;-86
2021/06/03 12:11:53;;;;;;;6.68;4.30;;;26.90;63.40;;;;;;4984975;28;20041;-85
2021/06/03 12:14:25;;;;;;;9.20;5.60;;;27.20;62.80;;;;;;4998512;28;20493;-85
2021/06/03 12:16:55;;;;;;;5.70;3.95;;;27.30;62.30;;;;;;4983973;28;20026;-87
2021/06/03 12:19:25;;;;;;;10.27;5.30;;;27.30;62.00;;;;;;4982895;28;20030;-89
2021/06/03 12:21:54;;;;;;;5.53;3.45;;;27.30;61.50;;;;;;4984572;28;20196;-87
2021/06/03 12:24:31;;;;;;;7.23;4.57;;;27.40;61.30;;;;;;4982726;28;20022;-87
2021/06/03 12:26:59;;;;;;;6.57;4.10;;;27.60;61.10;;;;;;4982934;28;20019;-95
2021/06/03 12:29:28;;;;;;;8.23;3.95;;;27.70;60.90;;;;;;4988445;28;20023;-89
2021/06/03 12:31:55;;;;;;;6.70;4.05;;;27.80;60.90;;;;;;4986120;28;20015;-87
2021/06/03 12:34:24;;;;;;;5.53;4.05;;;27.80;61.00;;;;;;4993242;28;20032;-86
2021/06/03 12:36:50;;;;;;;6.20;4.38;;;27.90;60.80;;;;;;4987222;28;20140;-92
2021/06/03 12:39:16;;;;;;;8.40;4.55;;;28.00;60.80;;;;;;4987317;28;20018;-86
2021/06/03 12:41:43;;;;;;;7.28;4.38;;;28.00;61.30;;;;;;4982883;28;20026;-83
2021/06/03 12:44:18;;;;;;;6.90;3.83;;;28.10;61.00;;;;;;4980363;28;20051;-84
2021/06/03 12:46:46;;;;;;;5.65;3.80;;;28.00;60.70;;;;;;4978793;28;20489;-84
2021/06/03 12:49:17;;;;;;;5.43;2.83;;;27.70;61.00;;;;;;4979503;28;20018;-83
2021/06/03 12:52:06;;;;;;;7.78;3.28;;;27.70;61.10;;;;;;4995632;28;20030;-83
2021/06/03 12:54:45;;;;;;;5.53;3.30;;;27.70;61.10;;;;;;4978451;28;20026;-85
2021/06/03 12:57:17;;;;;;;8.25;3.28;;;27.60;61.20;;;;;;4976323;28;20394;-82